Time;durP1;ratioP1;P1;durP2;ratioP2;P2;SDS_P1;SDS_P2;PMS_P1;PMS_P2;Temp;Humidity;BMP_temperature;BMP_pressure;BME280_temperature;BME280_humidity;BME280_pressure;Samples;Min_cycle;Max_cycle;Signal;HPM_P1;HPM_P2
2022/09/28 00:01:04;;;;;;;9.90;7.10;;;11.70;80.00;;;;;;5115730;28;20110;-61
2022/09/28 00:03:30;;;;;;;10.57;7.45;;;11.70;79.90;;;;;;5115818;28;20035;-61
2022/09/28 00:06:01;;;;;;;12.02;7.57;;;11.70;80.00;;;;;;5115811;27;20111;-61
2022/09/28 00:08:27;;;;;;;10.77;7.55;;;11.70;79.90;;;;;;5116448;28;20050;-61
2022/09/28 00:10:56;;;;;;;14.48;8.50;;;11.70;80.10;;;;;;5116434;28;20428;-61
2022/09/28 00:13:22;;;;;;;12.90;7.93;;;11.70;80.00;;;;;;5115272;27;20461;-61
2022/09/28 00:15:58;;;;;;;12.77;8.10;;;11.70;80.00;;;;;;5115675;28;20059;-61
2022/09/28 00:18:24;;;;;;;11.23;7.82;;;11.70;79.90;;;;;;5115954;28;20036;-61
2022/09/28 00:21:01;;;;;;;11.75;7.85;;;11.60;80.60;;;;;;5116377;28;20386;-61
2022/09/28 00:23:27;;;;;;;15.23;8.77;;;11.60;80.00;;;;;;5115652;28;20031;-61
2022/09/28 00:25:52;;;;;;;11.88;7.38;;;11.60;80.00;;;;;;5115769;27;20428;-60
2022/09/28 00:28:18;;;;;;;11.38;7.82;;;11.60;80.00;;;;;;5116062;28;20027;-61
2022/09/28 00:30:43;;;;;;;11.57;7.43;;;11.60;80.00;;;;;;5115342;28;20110;-61
2022/09/28 00:33:09;;;;;;;10.93;8.13;;;11.60;80.00;;;;;;5114945;28;20106;-61
2022/09/28 00:35:35;;;;;;;10.95;7.65;;;11.60;80.00;;;;;;5114909;28;20023;-61
2022/09/28 00:38:02;;;;;;;11.95;7.05;;;11.60;80.00;;;;;;5116003;28;20028;-61
2022/09/28 00:40:28;;;;;;;11.77;7.95;;;11.50;79.90;;;;;;5115620;28;20031;-61
2022/09/28 00:42:54;;;;;;;10.43;7.45;;;11.50;80.00;;;;;;5130648;27;20027;-61
2022/09/28 00:45:24;;;;;;;10.93;8.38;;;11.50;80.00;;;;;;5120026;27;20031;-61
2022/09/28 00:47:55;;;;;;;11.85;8.02;;;11.50;80.10;;;;;;5109965;28;20542;-61
2022/09/28 00:50:31;;;;;;;13.68;8.25;;;11.50;80.00;;;;;;5131678;27;20047;-61
2022/09/28 00:53:01;;;;;;;14.50;7.88;;;11.50;80.10;;;;;;5114083;27;20051;-61
2022/09/28 00:55:47;;;;;;;12.07;7.93;;;11.40;80.00;;;;;;5120128;27;20034;-61
2022/09/28 00:58:19;;;;;;;13.18;7.85;;;11.40;80.10;;;;;;5122255;27;20046;-61
2022/09/28 01:00:45;;;;;;;12.05;8.15;;;11.40;80.10;;;;;;5114135;28;20028;-61
2022/09/28 01:03:13;;;;;;;11.77;7.97;;;11.40;80.10;;;;;;5130125;27;20164;-61
2022/09/28 01:05:39;;;;;;;13.48;8.38;;;11.40;80.10;;;;;;5115202;28;20019;-61
2022/09/28 01:08:06;;;;;;;11.68;8.13;;;11.40;80.20;;;;;;5115214;28;20035;-61
2022/09/28 01:10:32;;;;;;;11.43;8.27;;;11.30;80.20;;;;;;5113598;28;20022;-60
2022/09/28 01:12:58;;;;;;;10.50;7.90;;;11.40;80.20;;;;;;5114398;28;20440;-61
2022/09/28 01:15:26;;;;;;;12.50;8.25;;;11.30;80.10;;;;;;5124504;28;20066;-61
2022/09/28 01:18:15;;;;;;;12.82;8.02;;;11.30;80.20;;;;;;5115146;28;20341;-61
2022/09/28 01:20:48;;;;;;;12.23;7.68;;;11.40;80.20;;;;;;5131639;28;20023;-61
2022/09/28 01:23:13;;;;;;;;;;;11.40;80.20;;;;;;5131240;28;20036;-61
2022/09/28 01:25:40;;;;;;;11.25;7.07;;;11.30;80.10;;;;;;5114331;28;19919;-61
2022/09/28 01:28:13;;;;;;;12.05;7.95;;;11.30;80.20;;;;;;5131664;28;20371;-61
2022/09/28 01:31:04;;;;;;;11.10;7.82;;;11.30;80.20;;;;;;5115367;28;20067;-60
2022/09/28 01:33:46;;;;;;;11.90;8.73;;;11.30;80.30;;;;;;5126192;27;20092;-61
2022/09/28 01:36:16;;;;;;;;;;;11.30;80.20;;;;;;5115294;28;20032;-61
2022/09/28 01:38:52;;;;;;;11.90;7.47;;;11.30;80.20;;;;;;5115116;28;20394;-61
2022/09/28 01:41:19;;;;;;;12.93;8.73;;;11.30;80.20;;;;;;5115607;28;20031;-61
2022/09/28 01:43:52;;;;;;;13.75;8.48;;;11.30;80.30;;;;;;5101402;28;20032;-61
2022/09/28 01:46:44;;;;;;;11.50;7.72;;;11.30;80.30;;;;;;5124718;28;20360;-60
2022/09/28 01:49:27;;;;;;;12.23;7.97;;;11.30;80.30;;;;;;5109038;28;20067;-61
2022/09/28 01:52:16;;;;;;;13.77;8.55;;;11.30;80.30;;;;;;5120940;28;20132;-61
2022/09/28 01:54:45;;;;;;;12.20;8.05;;;11.30;80.30;;;;;;5113059;28;20054;-61
2022/09/28 01:57:21;;;;;;;12.52;8.77;;;11.20;80.30;;;;;;5115107;28;20051;-61
2022/09/28 01:59:56;;;;;;;11.48;7.93;;;11.20;80.30;;;;;;5131244;28;20114;-60
2022/09/28 02:02:28;;;;;;;11.65;7.78;;;11.20;80.40;;;;;;5113113;28;20023;-61
2022/09/28 02:05:04;;;;;;;12.13;7.93;;;11.20;80.40;;;;;;5136099;27;20020;-61
2022/09/28 02:08:07;;;;;;;11.75;8.23;;;11.20;80.40;;;;;;5135671;27;20040;-61
2022/09/28 02:10:56;;;;;;;11.63;7.97;;;11.10;80.30;;;;;;5100862;28;20030;-60
2022/09/28 02:13:45;;;;;;;11.98;7.85;;;11.20;80.40;;;;;;5116047;28;20360;-60
2022/09/28 02:16:23;;;;;;;13.93;8.77;;;11.20;80.40;;;;;;5117216;28;20039;-61
2022/09/28 02:18:50;;;;;;;12.55;7.63;;;11.10;80.40;;;;;;5123439;27;20351;-61
2022/09/28 02:21:37;;;;;;;11.57;7.55;;;11.10;80.40;;;;;;5133952;27;20027;-61
2022/09/28 02:24:33;;;;;;;12.13;7.78;;;11.10;80.40;;;;;;5118012;28;20028;-61
2022/09/28 02:27:03;;;;;;;11.60;8.15;;;11.10;80.50;;;;;;5110167;27;20569;-61
2022/09/28 02:29:32;;;;;;;12.95;7.55;;;11.10;80.60;;;;;;5100803;28;20024;-61
2022/09/28 02:31:57;;;;;;;11.80;8.38;;;11.10;80.60;;;;;;5116430;27;20069;-61
2022/09/28 02:34:23;;;;;;;12.63;7.88;;;11.10;80.60;;;;;;5117023;28;20468;-61
2022/09/28 02:36:49;;;;;;;11.65;8.57;;;11.10;80.60;;;;;;5116672;27;20016;-61
2022/09/28 02:39:16;;;;;;;10.85;7.65;;;11.10;80.60;;;;;;5134018;27;20035;-60
2022/09/28 02:41:54;;;;;;;11.48;8.02;;;11.20;80.70;;;;;;5116768;28;20035;-61
2022/09/28 02:44:57;;;;;;;13.57;8.75;;;11.10;80.60;;;;;;5134159;27;20032;-60
2022/09/28 02:47:31;;;;;;;11.52;7.78;;;11.20;80.70;;;;;;5133932;27;20030;-61
2022/09/28 02:50:06;;;;;;;12.13;8.40;;;11.20;80.70;;;;;;5133262;27;20027;-61
2022/09/28 02:52:47;;;;;;;12.55;8.45;;;11.20;80.70;;;;;;5116951;28;20512;-61
2022/09/28 02:55:34;;;;;;;13.98;9.05;;;11.20;80.70;;;;;;5117363;28;20035;-61
2022/09/28 02:58:25;;;;;;;13.82;8.90;;;11.20;80.80;;;;;;5117310;27;20114;-61
2022/09/28 03:01:09;;;;;;;12.07;7.88;;;11.20;81.40;;;;;;5124115;27;20059;-60
2022/09/28 03:03:52;;;;;;;13.00;8.60;;;11.20;80.80;;;;;;5114125;28;20103;-61
2022/09/28 03:06:38;;;;;;;13.80;8.40;;;11.20;80.80;;;;;;5117757;28;20028;-61
2022/09/28 03:09:11;;;;;;;13.02;8.93;;;11.20;80.80;;;;;;5117769;28;20381;-60
2022/09/28 03:11:42;;;;;;;14.20;8.25;;;11.20;80.90;;;;;;5132607;27;20169;-61
2022/09/28 03:14:10;;;;;;;12.88;8.07;;;11.20;80.80;;;;;;5117618;27;20111;-61
2022/09/28 03:16:48;;;;;;;13.95;8.75;;;11.20;80.70;;;;;;5133205;27;20038;-61
2022/09/28 03:19:23;;;;;;;12.70;8.10;;;11.20;80.80;;;;;;5132261;27;20462;-60
2022/09/28 03:21:50;;;;;;;13.00;8.15;;;11.20;80.90;;;;;;5115710;28;20032;-60
2022/09/28 03:24:15;;;;;;;11.93;7.57;;;11.20;80.90;;;;;;5115951;28;20100;-61
2022/09/28 03:26:41;;;;;;;11.77;7.75;;;11.30;80.90;;;;;;5122309;27;20065;-60
2022/09/28 03:29:08;;;;;;;12.30;8.00;;;11.30;80.90;;;;;;5104534;28;20031;-61
2022/09/28 03:31:34;;;;;;;10.77;7.60;;;11.30;80.90;;;;;;5130741;27;20028;-61
2022/09/28 03:34:00;;;;;;;10.23;7.40;;;11.30;80.80;;;;;;5133219;27;20034;-61
2022/09/28 03:36:25;;;;;;;11.70;7.55;;;11.30;80.80;;;;;;5115332;28;20464;-60
2022/09/28 03:38:54;;;;;;;10.60;7.28;;;11.30;80.80;;;;;;5116918;28;20088;-61
2022/09/28 03:41:23;;;;;;;13.20;7.63;;;11.20;80.80;;;;;;5114309;28;20412;-61
2022/09/28 03:43:48;;;;;;;10.32;6.90;;;11.20;81.50;;;;;;5115210;28;20028;-61
2022/09/28 03:46:14;;;;;;;11.27;6.97;;;11.20;80.90;;;;;;5115160;28;20031;-61
2022/09/28 03:48:45;;;;;;;11.40;6.95;;;11.20;80.90;;;;;;5115602;28;20091;-61
2022/09/28 03:51:11;;;;;;;10.02;6.72;;;11.20;80.90;;;;;;5116248;27;20106;-61
2022/09/28 03:53:38;;;;;;;10.75;7.63;;;11.20;80.90;;;;;;5115434;28;20416;-61
2022/09/28 03:56:09;;;;;;;9.70;6.75;;;11.20;80.90;;;;;;5131466;27;20439;-61
2022/09/28 03:58:35;;;;;;;12.55;7.45;;;11.20;80.90;;;;;;5114352;28;20326;-61
2022/09/28 04:01:14;;;;;;;13.32;7.13;;;11.30;81.00;;;;;;5114547;27;20034;-61
2022/09/28 04:03:41;;;;;;;12.20;6.53;;;11.20;81.00;;;;;;5114046;28;20158;-61
2022/09/28 04:06:06;;;;;;;9.88;7.22;;;11.30;81.00;;;;;;5132305;27;20039;-61
2022/09/28 04:08:33;;;;;;;10.10;6.78;;;11.30;80.90;;;;;;5115020;28;20024;-61
2022/09/28 04:11:00;;;;;;;9.80;6.50;;;11.30;80.80;;;;;;5113210;28;20038;-61
2022/09/28 04:13:28;;;;;;;9.88;6.40;;;11.30;80.80;;;;;;5113641;28;20027;-61
2022/09/28 04:15:55;;;;;;;11.48;7.03;;;11.30;80.70;;;;;;5114691;28;20040;-61
2022/09/28 04:18:22;;;;;;;8.95;5.85;;;11.30;80.70;;;;;;5131832;27;20027;-60
2022/09/28 04:21:07;;;;;;;9.55;6.38;;;11.30;80.70;;;;;;5130114;27;20394;-61
2022/09/28 04:23:39;;;;;;;9.35;5.93;;;11.20;80.70;;;;;;5114978;28;20024;-61
2022/09/28 04:26:06;;;;;;;10.93;6.15;;;11.30;80.80;;;;;;5117854;27;20094;-61
2022/09/28 04:31:21;;;;;;;9.40;5.85;;;11.30;80.90;;;;;;5117745;27;20509;-61
2022/09/28 04:33:47;;;;;;;10.00;6.07;;;11.30;80.80;;;;;;5132233;27;20114;-60
2022/09/28 04:36:13;;;;;;;9.90;6.05;;;11.30;80.80;;;;;;5131919;27;20066;-60
2022/09/28 04:38:39;;;;;;;11.18;5.93;;;11.20;80.70;;;;;;5116011;28;20440;-61
2022/09/28 04:41:06;;;;;;;8.95;5.03;;;11.30;80.70;;;;;;5121617;27;20027;-61
2022/09/28 04:43:32;;;;;;;8.27;5.15;;;11.20;80.70;;;;;;5131894;27;20028;-60
2022/09/28 04:45:59;;;;;;;8.48;4.68;;;11.20;80.70;;;;;;5098133;28;20023;-60
2022/09/28 04:48:28;;;;;;;9.07;5.53;;;11.20;80.70;;;;;;5114204;28;20027;-60
2022/09/28 04:51:10;;;;;;;9.55;5.32;;;11.20;80.70;;;;;;5128881;27;20023;-60
2022/09/28 04:53:36;;;;;;;10.75;5.43;;;11.20;80.70;;;;;;5115361;27;20046;-60
2022/09/28 04:56:08;;;;;;;9.65;4.97;;;11.20;80.60;;;;;;5113766;28;20028;-60
2022/09/28 04:58:37;;;;;;;7.85;4.70;;;11.10;80.60;;;;;;5131099;27;20130;-61
2022/09/28 05:01:09;;;;;;;9.35;5.22;;;11.10;80.60;;;;;;5112797;28;20019;-60
2022/09/28 05:04:01;;;;;;;8.98;5.30;;;11.10;80.60;;;;;;5080791;28;20119;-60
2022/09/28 05:06:45;;;;;;;9.10;4.70;;;11.10;80.50;;;;;;5112135;27;20034;-60
2022/09/28 05:09:12;;;;;;;8.35;4.55;;;11.00;80.40;;;;;;5113893;28;20020;-60
2022/09/28 05:11:37;;;;;;;8.07;4.63;;;11.00;80.40;;;;;;5117141;27;20023;-60
2022/09/28 05:14:09;;;;;;;8.32;4.85;;;11.00;80.40;;;;;;5112694;28;20012;-60
2022/09/28 05:16:35;;;;;;;8.40;4.78;;;11.00;80.40;;;;;;5117471;28;20468;-60
2022/09/28 05:19:33;;;;;;;8.25;4.85;;;10.90;80.40;;;;;;5112888;28;20031;-60
2022/09/28 05:22:03;;;;;;;8.75;4.68;;;10.90;80.40;;;;;;5113861;28;20479;-60
2022/09/28 05:24:33;;;;;;;7.45;4.57;;;10.90;80.40;;;;;;5129674;28;20397;-60
2022/09/28 05:26:58;;;;;;;9.50;4.60;;;10.90;80.40;;;;;;5137541;27;20631;-60
2022/09/28 05:29:24;;;;;;;9.63;5.20;;;10.90;80.30;;;;;;5113809;28;20356;-60
2022/09/28 05:31:49;;;;;;;8.45;4.72;;;10.90;80.20;;;;;;5113666;28;20039;-60
2022/09/28 05:34:34;;;;;;;7.32;4.43;;;10.90;80.20;;;;;;5114775;28;20035;-60
2022/09/28 05:36:59;;;;;;;8.07;5.05;;;10.90;80.20;;;;;;5113856;28;20020;-60
2022/09/28 05:39:25;;;;;;;8.38;4.97;;;10.80;80.20;;;;;;5115448;28;20083;-60
2022/09/28 05:41:51;;;;;;;8.20;4.80;;;10.80;80.10;;;;;;5123319;27;20134;-60
2022/09/28 05:44:16;;;;;;;9.23;4.97;;;10.80;80.20;;;;;;5118910;27;20039;-60
2022/09/28 05:46:42;;;;;;;9.27;5.22;;;10.80;80.20;;;;;;5133596;27;20025;-60
2022/09/28 05:49:09;;;;;;;8.70;5.03;;;10.80;80.20;;;;;;5117413;27;20020;-60
2022/09/28 05:51:35;;;;;;;8.10;4.82;;;10.80;80.30;;;;;;5117375;28;20095;-64
2022/09/28 05:54:01;;;;;;;8.27;4.55;;;10.80;80.20;;;;;;5118198;28;20028;-62
2022/09/28 05:56:29;;;;;;;9.57;5.35;;;10.80;80.20;;;;;;5125943;27;20038;-62
2022/09/28 05:58:57;;;;;;;9.27;5.18;;;10.80;80.10;;;;;;5116617;28;20031;-61
2022/09/28 06:01:23;;;;;;;8.43;4.95;;;10.80;80.10;;;;;;5114835;27;20024;-61
2022/09/28 06:03:49;;;;;;;9.73;5.07;;;10.90;80.10;;;;;;5133601;27;20034;-61
2022/09/28 06:06:15;;;;;;;7.60;4.88;;;10.90;80.00;;;;;;5117420;28;20106;-61
2022/09/28 06:08:42;;;;;;;7.72;4.65;;;10.90;80.00;;;;;;5117169;28;20024;-61
2022/09/28 06:11:32;;;;;;;7.85;4.60;;;10.90;80.00;;;;;;5131900;27;20051;-61
2022/09/28 06:14:02;;;;;;;9.60;4.68;;;10.90;80.00;;;;;;5113987;28;20019;-61
2022/09/28 06:16:30;;;;;;;7.63;4.40;;;10.80;79.90;;;;;;5134020;27;20123;-61
2022/09/28 06:18:55;;;;;;;8.07;5.00;;;10.90;79.90;;;;;;5116796;27;20527;-61
2022/09/28 06:21:53;;;;;;;7.72;4.63;;;10.90;79.90;;;;;;5096548;27;20057;-61
2022/09/28 06:24:19;;;;;;;8.30;5.13;;;10.90;79.90;;;;;;5116636;28;20448;-61
2022/09/28 06:26:45;;;;;;;8.35;5.15;;;10.90;79.90;;;;;;5115565;27;20072;-62
2022/09/28 06:29:17;;;;;;;9.05;5.32;;;10.90;79.80;;;;;;5120723;27;20398;-61
2022/09/28 06:31:44;;;;;;;10.15;5.25;;;10.90;79.80;;;;;;5133930;27;20020;-61
2022/09/28 06:34:11;;;;;;;8.60;5.63;;;10.90;79.80;;;;;;5133928;27;20107;-61
2022/09/28 06:36:38;;;;;;;8.50;5.22;;;11.00;79.90;;;;;;5116827;28;20448;-60
2022/09/28 06:39:04;;;;;;;9.98;5.85;;;11.00;79.90;;;;;;5116787;28;20038;-60
2022/09/28 06:41:30;;;;;;;9.55;5.57;;;11.00;80.00;;;;;;5117399;27;20019;-61
2022/09/28 06:43:59;;;;;;;8.30;5.15;;;11.00;80.00;;;;;;5116367;28;20054;-60
2022/09/28 06:46:43;;;;;;;7.85;4.85;;;11.00;79.90;;;;;;5117549;28;20070;-60
2022/09/28 06:49:39;;;;;;;7.60;4.28;;;11.10;79.90;;;;;;5115813;28;20444;-60
2022/09/28 06:52:20;;;;;;;7.68;4.50;;;11.10;79.80;;;;;;5108488;27;20034;-61
2022/09/28 06:55:11;;;;;;;7.20;4.13;;;11.20;79.70;;;;;;5114702;27;20039;-61
2022/09/28 06:57:40;;;;;;;8.32;3.80;;;11.20;79.60;;;;;;5133184;27;20023;-61
2022/09/28 07:00:06;;;;;;;8.98;4.72;;;11.30;79.60;;;;;;5114725;27;20053;-61
2022/09/28 07:02:32;;;;;;;8.40;3.85;;;11.30;79.50;;;;;;5114979;28;20404;-60
2022/09/28 07:05:15;;;;;;;8.95;4.03;;;11.30;79.60;;;;;;5114667;28;20023;-61
2022/09/28 07:08:03;;;;;;;9.90;4.18;;;11.30;79.60;;;;;;5132710;27;20475;-61
2022/09/28 07:10:45;;;;;;;8.60;4.18;;;11.30;79.60;;;;;;5115873;28;20015;-61
2022/09/28 07:13:33;;;;;;;6.30;3.47;;;11.30;79.60;;;;;;5114171;27;20046;-61
2022/09/28 07:16:05;;;;;;;8.15;3.85;;;11.30;79.60;;;;;;5115680;28;20035;-61
2022/09/28 07:18:31;;;;;;;6.32;3.60;;;11.30;79.60;;;;;;5115567;28;20015;-61
2022/09/28 07:20:57;;;;;;;7.20;3.75;;;11.30;79.60;;;;;;5131305;27;20019;-61
2022/09/28 07:23:26;;;;;;;6.82;3.50;;;11.30;79.50;;;;;;5130538;27;20054;-61
2022/09/28 07:26:18;;;;;;;7.82;3.17;;;11.40;79.60;;;;;;5105701;27;20406;-61
2022/09/28 07:29:11;;;;;;;7.43;3.33;;;11.40;79.50;;;;;;5094816;28;20036;-62
2022/09/28 07:31:53;;;;;;;6.55;3.22;;;11.50;79.50;;;;;;5104705;27;20471;-61
2022/09/28 07:34:42;;;;;;;6.20;2.97;;;11.60;79.40;;;;;;5084677;28;20088;-61
2022/09/28 07:37:12;;;;;;;6.97;2.67;;;11.70;79.20;;;;;;5115340;28;20475;-62
2022/09/28 07:41:10;;;;;;;5.90;2.88;;;11.80;79.10;;;;;;5113465;28;20456;-62
2022/09/28 07:42:28;;;;;;;5.32;2.58;;;11.90;78.90;;;;;;5122485;27;20088;-61
2022/09/28 07:44:55;;;;;;;5.43;2.30;;;12.10;78.70;;;;;;5114972;27;20023;-61
2022/09/28 07:47:25;;;;;;;4.70;2.20;;;12.20;78.40;;;;;;5132299;27;20058;-62
2022/09/28 07:50:17;;;;;;;4.00;1.80;;;12.40;78.10;;;;;;5089803;28;20031;-62
2022/09/28 07:52:59;;;;;;;5.57;2.58;;;12.60;77.80;;;;;;5131819;27;20119;-62
2022/09/28 07:55:31;;;;;;;5.93;2.35;;;12.80;77.50;;;;;;5114672;27;20032;-62
2022/09/28 07:58:22;;;;;;;;;;;12.90;77.10;;;;;;5123960;27;20042;-62
2022/09/28 08:01:20;;;;;;;4.28;1.92;;;13.20;76.80;;;;;;5116027;28;19918;-62
2022/09/28 08:03:46;;;;;;;47.58;6.63;;;13.40;76.30;;;;;;5114762;28;20058;-62
2022/09/28 08:06:16;;;;;;;13.77;2.83;;;13.60;75.90;;;;;;5114900;28;20038;-62
2022/09/28 08:08:43;;;;;;;6.13;1.92;;;13.70;75.60;;;;;;5111831;28;20027;-62
2022/09/28 08:11:12;;;;;;;6.13;1.92;;;13.90;75.30;;;;;;5115266;28;20043;-62
2022/09/28 08:14:16;;;;;;;3.00;1.40;;;14.10;75.00;;;;;;5094953;28;20097;-62
2022/09/28 08:17:01;;;;;;;3.60;1.40;;;14.30;74.50;;;;;;5094048;28;20372;-62
2022/09/28 08:22:31;;;;;;;2.22;1.20;;;14.60;73.60;;;;;;5077018;28;20503;-62
2022/09/28 08:24:56;;;;;;;3.65;1.73;;;14.70;73.40;;;;;;5076227;28;20058;-62
2022/09/28 08:27:22;;;;;;;3.20;1.52;;;14.90;73.10;;;;;;5078485;28;20024;-62
2022/09/28 08:29:48;;;;;;;4.20;1.60;;;15.00;72.70;;;;;;5104066;28;20047;-62
2022/09/28 08:32:34;;;;;;;2.65;1.42;;;15.20;72.40;;;;;;5094095;28;20097;-62
2022/09/28 08:35:19;;;;;;;4.60;1.45;;;15.40;72.00;;;;;;5093746;28;20062;-62
2022/09/28 08:38:03;;;;;;;2.85;1.42;;;15.60;71.50;;;;;;5091632;28;20047;-62
2022/09/28 08:41:08;;;;;;;3.28;1.27;;;15.70;71.00;;;;;;5089462;28;20043;-62
2022/09/28 08:43:47;;;;;;;2.92;1.13;;;15.80;70.80;;;;;;5075997;28;20035;-62
2022/09/28 08:46:41;;;;;;;3.45;1.40;;;15.90;70.60;;;;;;5114762;28;20099;-62
2022/09/28 08:49:29;;;;;;;2.70;1.25;;;15.90;70.40;;;;;;5130867;27;20053;-62
2022/09/28 08:52:32;;;;;;;2.47;1.30;;;15.80;70.50;;;;;;5108811;28;20554;-62
2022/09/28 08:55:38;;;;;;;5.10;1.60;;;15.80;70.60;;;;;;5093138;28;20056;-62
2022/09/28 08:58:17;;;;;;;4.00;1.35;;;15.90;70.30;;;;;;5126667;27;20016;-62
2022/09/28 09:00:48;;;;;;;4.50;1.25;;;16.00;70.10;;;;;;5131160;27;20043;-62
2022/09/28 09:03:30;;;;;;;3.50;1.05;;;16.00;70.00;;;;;;5114083;27;21698;-62
2022/09/28 09:06:54;;;;;;;2.42;1.00;;;16.00;69.90;;;;;;5113455;28;20118;-63
2022/09/28 09:09:52;;;;;;;2.30;1.10;;;16.10;69.40;;;;;;5113917;28;20440;-62
2022/09/28 09:12:30;;;;;;;2.97;1.00;;;16.10;69.20;;;;;;5130809;27;20448;-62
2022/09/28 09:15:13;;;;;;;2.80;1.10;;;15.90;69.20;;;;;;5119378;28;20050;-62
2022/09/28 09:17:58;;;;;;;2.10;0.90;;;15.70;69.50;;;;;;5130455;27;20444;-62
2022/09/28 09:20:50;;;;;;;2.92;1.15;;;15.50;70.00;;;;;;5114288;28;20043;-62
2022/09/28 09:23:37;;;;;;;2.33;0.98;;;15.80;69.80;;;;;;5114387;28;20055;-62
2022/09/28 09:26:25;;;;;;;2.28;1.00;;;15.90;69.20;;;;;;5127263;27;20355;-62
2022/09/28 09:28:57;;;;;;;2.63;1.13;;;16.20;69.10;;;;;;5131581;27;20024;-62
2022/09/28 09:31:56;;;;;;;2.88;1.02;;;16.50;68.50;;;;;;5127959;28;20202;-63
2022/09/28 09:34:46;;;;;;;3.15;1.10;;;16.60;67.70;;;;;;5114561;28;20364;-63
2022/09/28 09:37:43;;;;;;;1.85;0.80;;;16.40;67.80;;;;;;5113566;28;20074;-63
2022/09/28 09:40:51;;;;;;;2.47;0.90;;;16.10;68.20;;;;;;5107031;28;20035;-64
2022/09/28 09:44:18;;;;;;;0.65;0.60;;;16.10;68.20;;;;;;5108096;28;20131;-63
2022/09/28 09:47:10;;;;;;;0.65;0.50;;;16.00;68.00;;;;;;5106323;28;20096;-63
2022/09/28 09:49:56;;;;;;;1.55;0.73;;;16.30;67.80;;;;;;5127347;27;20124;-63
2022/09/28 09:52:29;;;;;;;1.98;0.90;;;16.60;67.00;;;;;;5117036;28;20024;-63
2022/09/28 09:55:01;;;;;;;1.42;0.70;;;16.50;66.70;;;;;;5127929;28;20027;-63
2022/09/28 09:57:50;;;;;;;1.52;0.55;;;16.60;66.80;;;;;;5130590;28;20047;-64
2022/09/28 10:00:31;;;;;;;1.77;0.70;;;16.70;66.30;;;;;;5112086;28;20333;-63
2022/09/28 10:03:20;;;;;;;1.35;0.88;;;16.70;66.20;;;;;;5128251;27;20028;-63
2022/09/28 10:06:01;;;;;;;0.73;0.60;;;16.40;66.10;;;;;;5122057;28;20028;-63
2022/09/28 10:08:31;;;;;;;1.52;0.80;;;16.20;67.10;;;;;;5114989;28;20036;-63
2022/09/28 10:11:09;;;;;;;3.20;0.93;;;16.10;66.70;;;;;;5113333;28;20505;-63
2022/09/28 10:13:39;;;;;;;1.42;0.80;;;15.90;66.80;;;;;;5130929;28;20031;-63
2022/09/28 10:16:22;;;;;;;4.63;1.17;;;15.80;67.20;;;;;;5118420;27;20066;-63
2022/09/28 10:18:55;;;;;;;1.77;0.85;;;15.80;67.50;;;;;;5130326;28;20463;-63
2022/09/28 10:21:41;;;;;;;2.40;0.93;;;16.00;66.90;;;;;;5113084;28;20039;-63
2022/09/28 10:24:49;;;;;;;1.55;0.80;;;16.00;66.50;;;;;;5112664;28;20100;-63
2022/09/28 10:27:20;;;;;;;1.60;0.70;;;16.10;66.60;;;;;;5115773;28;20028;-63
2022/09/28 10:30:25;;;;;;;2.33;0.73;;;16.40;66.30;;;;;;5133916;27;20039;-63
2022/09/28 10:32:57;;;;;;;1.10;0.88;;;16.80;65.40;;;;;;5132081;27;20024;-63
2022/09/28 10:35:25;;;;;;;1.95;0.80;;;16.90;64.80;;;;;;5133113;27;20027;-63
2022/09/28 10:38:03;;;;;;;0.98;0.70;;;16.90;64.50;;;;;;5120767;27;20020;-63
2022/09/28 10:40:47;;;;;;;2.20;0.75;;;16.70;64.50;;;;;;5118898;27;20103;-63
2022/09/28 10:43:33;;;;;;;1.55;0.52;;;16.50;65.00;;;;;;5115325;28;20073;-63
2022/09/28 10:46:09;;;;;;;3.05;0.90;;;16.70;64.90;;;;;;5129511;27;20027;-63
2022/09/28 10:48:52;;;;;;;2.58;0.80;;;17.00;64.00;;;;;;5116423;28;20114;-63
2022/09/28 10:51:45;;;;;;;2.30;0.65;;;17.40;63.30;;;;;;5133013;27;20123;-63
2022/09/28 10:54:24;;;;;;;1.30;0.55;;;17.70;62.30;;;;;;5116916;28;20038;-63
2022/09/28 10:56:52;;;;;;;2.13;0.82;;;18.00;62.00;;;;;;5133567;27;20118;-63
2022/09/28 10:59:29;;;;;;;1.55;0.70;;;18.20;61.50;;;;;;5133611;27;20024;-63
2022/09/28 11:02:19;;;;;;;1.17;0.60;;;18.20;61.30;;;;;;5132615;27;20070;-64
2022/09/28 11:04:51;;;;;;;2.63;0.73;;;18.10;61.30;;;;;;5116197;28;20027;-63
2022/09/28 11:07:27;;;;;;;2.33;0.60;;;18.00;61.20;;;;;;5132493;27;20052;-65
2022/09/28 11:09:54;;;;;;;2.15;0.80;;;17.90;61.20;;;;;;5115483;28;20020;-62
2022/09/28 11:12:23;;;;;;;0.85;0.60;;;17.70;61.30;;;;;;5115333;28;20448;-62
2022/09/28 11:15:02;;;;;;;2.13;0.63;;;17.60;61.30;;;;;;5115833;28;20043;-62
2022/09/28 11:17:39;;;;;;;1.30;0.50;;;17.70;61.10;;;;;;5133201;27;20413;-62
2022/09/28 11:20:24;;;;;;;2.15;0.57;;;18.00;61.10;;;;;;5133652;27;20026;-62
2022/09/28 11:22:55;;;;;;;1.50;0.57;;;17.90;60.80;;;;;;5115536;28;20451;-62
2022/09/28 11:25:26;;;;;;;1.45;0.65;;;17.70;61.00;;;;;;5116220;28;20032;-63
2022/09/28 11:27:52;;;;;;;2.28;0.80;;;17.60;61.10;;;;;;5117259;28;20065;-62
2022/09/28 11:30:47;;;;;;;1.83;0.60;;;17.70;60.60;;;;;;5133262;27;20029;-62
2022/09/28 11:33:30;;;;;;;1.52;0.60;;;17.90;60.00;;;;;;5133259;27;20047;-62
2022/09/28 11:36:15;;;;;;;2.65;0.63;;;18.10;59.70;;;;;;5115740;27;20114;-63
2022/09/28 11:39:02;;;;;;;0.30;0.30;;;18.30;59.30;;;;;;5132871;27;20337;-63
2022/09/28 11:41:59;;;;;;;3.22;0.60;;;18.30;59.00;;;;;;5115946;28;20027;-62
2022/09/28 11:44:37;;;;;;;0.65;0.52;;;18.40;58.70;;;;;;5115850;28;20031;-62
2022/09/28 11:47:29;;;;;;;1.20;0.63;;;18.30;59.00;;;;;;5115952;28;20027;-62
2022/09/28 11:50:34;;;;;;;0.65;0.52;;;18.30;59.20;;;;;;5132713;27;20172;-62
2022/09/28 11:53:09;;;;;;;1.80;0.82;;;18.30;59.20;;;;;;5106802;28;20344;-63
2022/09/28 11:55:52;;;;;;;1.20;0.52;;;18.30;59.20;;;;;;5115951;28;20065;-62
2022/09/28 11:58:26;;;;;;;1.33;0.50;;;18.30;59.40;;;;;;5116388;28;20451;-62
2022/09/28 12:01:11;;;;;;;2.08;0.73;;;18.10;58.90;;;;;;5132953;27;20032;-63
2022/09/28 12:04:06;;;;;;;2.72;0.68;;;17.90;59.00;;;;;;5116590;28;20047;-62
2022/09/28 12:07:00;;;;;;;1.75;0.57;;;17.70;59.30;;;;;;5131599;27;20724;-62
2022/09/28 12:09:52;;;;;;;1.00;0.47;;;17.50;59.40;;;;;;5101646;28;20114;-62
2022/09/28 12:12:37;;;;;;;2.22;0.50;;;17.20;59.90;;;;;;5132567;27;20030;-62
2022/09/28 12:15:24;;;;;;;0.88;0.50;;;17.00;60.20;;;;;;5114901;28;20050;-62
2022/09/28 12:18:18;;;;;;;1.15;0.70;;;16.90;60.50;;;;;;5116787;28;20020;-63
2022/09/28 12:20:50;;;;;;;1.40;0.60;;;16.80;60.80;;;;;;5116342;28;20374;-62
2022/09/28 12:23:33;;;;;;;1.95;0.70;;;16.80;60.70;;;;;;5116212;28;20063;-62
2022/09/28 12:26:03;;;;;;;1.73;0.50;;;16.70;61.40;;;;;;5115341;28;20035;-62
2022/09/28 12:28:44;;;;;;;4.15;0.82;;;16.60;61.00;;;;;;5116695;28;20031;-62
2022/09/28 12:31:20;;;;;;;1.70;0.60;;;16.50;61.10;;;;;;5116120;28;20027;-62
2022/09/28 12:33:49;;;;;;;1.25;0.45;;;16.30;61.20;;;;;;5116761;28;20489;-63
2022/09/28 12:36:15;;;;;;;1.65;0.55;;;16.30;61.50;;;;;;5115287;28;20104;-62
2022/09/28 12:38:40;;;;;;;0.40;0.40;;;16.20;61.80;;;;;;5113607;28;20081;-62
2022/09/28 12:41:22;;;;;;;1.80;0.50;;;16.00;62.30;;;;;;5113859;28;20043;-63
2022/09/28 12:43:53;;;;;;;1.42;0.65;;;16.00;62.60;;;;;;5115355;28;20066;-63
2022/09/28 12:46:33;;;;;;;2.25;0.60;;;15.90;62.80;;;;;;5115331;28;20035;-64
2022/09/28 12:49:12;;;;;;;1.13;0.52;;;16.00;62.90;;;;;;5116198;27;20110;-63
2022/09/28 12:52:00;;;;;;;1.50;0.63;;;16.00;62.60;;;;;;5111894;27;20024;-63
2022/09/28 12:54:41;;;;;;;0.98;0.50;;;16.20;62.00;;;;;;5114935;28;20076;-63
2022/09/28 12:57:18;;;;;;;1.42;0.52;;;16.30;61.80;;;;;;5114280;28;20038;-63
2022/09/28 13:00:08;;;;;;;3.22;0.80;;;16.30;61.70;;;;;;5113426;27;20432;-62
2022/09/28 13:03:18;;;;;;;1.40;0.80;;;16.30;61.70;;;;;;5111752;28;20049;-61
2022/09/28 13:06:04;;;;;;;2.45;0.88;;;16.20;61.50;;;;;;5101484;28;20027;-62
2022/09/28 13:08:54;;;;;;;1.10;0.65;;;16.20;61.60;;;;;;5113807;28;20039;-62
2022/09/28 13:11:37;;;;;;;1.85;0.65;;;16.10;61.90;;;;;;5107299;28;20016;-62
2022/09/28 13:14:55;;;;;;;1.83;0.60;;;16.00;62.40;;;;;;5112926;28;20024;-62
2022/09/28 13:17:38;;;;;;;0.55;0.50;;;16.00;62.90;;;;;;5113753;28;20415;-63
2022/09/28 13:20:14;;;;;;;1.55;0.70;;;15.90;63.60;;;;;;5115619;28;20440;-62
2022/09/28 13:23:02;;;;;;;1.35;0.70;;;15.80;64.00;;;;;;5112613;28;20062;-62
2022/09/28 13:25:33;;;;;;;1.15;0.70;;;15.80;64.10;;;;;;5106959;28;20398;-62
2022/09/28 13:28:04;;;;;;;2.75;0.88;;;15.80;64.20;;;;;;5112760;28;20022;-62
2022/09/28 13:30:33;;;;;;;3.22;0.80;;;15.70;64.30;;;;;;5114819;28;20089;-62
2022/09/28 13:33:02;;;;;;;1.58;0.52;;;15.70;64.50;;;;;;5113076;28;20044;-63
2022/09/28 13:35:28;;;;;;;1.98;0.77;;;15.70;64.70;;;;;;5114995;28;20030;-63
2022/09/28 13:38:16;;;;;;;2.00;0.80;;;15.60;64.70;;;;;;5113115;28;20448;-63
2022/09/28 13:41:03;;;;;;;2.00;0.90;;;15.70;64.90;;;;;;5107004;28;20024;-62